Time;durP1;ratioP1;P1;durP2;ratioP2;P2;SDS_P1;SDS_P2;PMS_P1;PMS_P2;Temp;Humidity;BMP_temperature;BMP_pressure;BME280_temperature;BME280_humidity;BME280_pressure;Samples;Min_cycle;Max_cycle;Signal;HPM_P1;HPM_P2
2022/01/27 00:02:49;;;;;;;50.97;32.83;;;;;;;;;;5013939;28;20037;-75
2022/01/27 00:05:24;;;;;;;54.63;31.57;;;5.30;99.90;;;;;;5026638;28;20064;-75
2022/01/27 00:13:10;;;;;;;50.33;30.40;;;5.00;99.90;;;;;;5031733;28;20026;-75
2022/01/27 00:15:38;;;;;;;48.70;28.23;;;5.00;99.90;;;;;;5012209;28;20042;-75
2022/01/27 00:18:12;;;;;;;49.83;29.57;;;4.90;99.90;;;;;;5021828;28;20013;-75
2022/01/27 00:20:38;;;;;;;48.13;28.88;;;4.80;99.90;;;;;;5014947;28;20076;-75
2022/01/27 00:23:04;;;;;;;43.53;27.53;;;;;;;;;;5027848;28;20467;-75
2022/01/27 00:25:29;;;;;;;42.63;27.03;;;4.90;99.90;;;;;;5015678;28;20394;-75
2022/01/27 00:27:55;;;;;;;41.90;26.87;;;;;;;;;;5012029;28;20821;-75
2022/01/27 00:30:21;;;;;;;38.10;24.20;;;;;;;;;;5026173;28;20025;-75
2022/01/27 00:32:47;;;;;;;41.20;26.40;;;4.90;99.90;;;;;;5019540;28;20379;-75
2022/01/27 00:35:13;;;;;;;36.40;23.73;;;5.00;99.90;;;;;;5012019;28;20034;-75
2022/01/27 00:37:39;;;;;;;37.43;23.93;;;;;;;;;;5013427;28;20049;-75
2022/01/27 00:40:07;;;;;;;38.07;23.50;;;5.10;99.90;;;;;;5025388;28;20032;-75
2022/01/27 00:42:32;;;;;;;41.60;24.77;;;4.70;99.90;;;;;;5031397;28;20029;-75
2022/01/27 00:44:59;;;;;;;40.30;25.47;;;5.00;99.90;;;;;;5031312;28;20033;-75
2022/01/27 00:47:25;;;;;;;40.47;23.37;;;;;;;;;;5031664;28;20028;-75
2022/01/27 00:49:50;;;;;;;38.67;24.90;;;5.00;99.90;;;;;;5020688;28;20046;-75
2022/01/27 00:52:25;;;;;;;37.47;23.83;;;;;;;;;;5026902;28;20033;-75
2022/01/27 00:54:52;;;;;;;37.27;23.23;;;;;;;;;;5015032;28;20029;-75
2022/01/27 01:00:08;;;;;;;37.03;24.90;;;5.10;99.90;;;;;;5026294;28;20029;-75
2022/01/27 01:02:47;;;;;;;38.07;23.83;;;5.00;99.90;;;;;;5012437;28;20581;-75
2022/01/27 01:07:44;;;;;;;36.23;24.27;;;5.10;99.90;;;;;;5023825;28;20468;-75
2022/01/27 01:15:31;;;;;;;38.23;23.97;;;4.70;99.90;;;;;;5011610;28;20025;-75
2022/01/27 01:18:08;;;;;;;45.47;28.58;;;;;;;;;;4993716;28;20030;-75
2022/01/27 01:21:14;;;;;;;40.50;26.93;;;5.10;99.90;;;;;;5015018;28;20402;-75
2022/01/27 01:34:18;;;;;;;42.30;27.33;;;4.90;99.90;;;;;;5011588;28;20426;-74
2022/01/27 01:36:54;;;;;;;45.47;28.17;;;4.90;99.90;;;;;;5015876;28;20033;-74
2022/01/27 01:39:21;;;;;;;45.97;28.03;;;4.80;99.90;;;;;;5011821;28;20053;-74
2022/01/27 01:41:47;;;;;;;41.87;27.03;;;;;;;;;;5010416;28;20026;-75
2022/01/27 01:44:12;;;;;;;49.13;27.30;;;4.80;99.90;;;;;;5017536;28;20458;-75
2022/01/27 01:46:38;;;;;;;45.17;28.20;;;;;;;;;;5010646;28;20506;-75
2022/01/27 01:49:04;;;;;;;41.53;26.80;;;;;;;;;;5019824;28;20410;-75
2022/01/27 01:51:32;;;;;;;43.00;26.43;;;4.60;99.90;;;;;;5012012;28;20042;-75
2022/01/27 01:53:58;;;;;;;44.00;26.33;;;4.90;99.90;;;;;;5018289;28;20071;-75
2022/01/27 01:56:24;;;;;;;44.40;27.67;;;;;;;;;;5030422;28;20098;-75
2022/01/27 01:58:51;;;;;;;46.83;29.07;;;3.80;99.90;;;;;;5022087;28;20026;-75
2022/01/27 02:01:17;;;;;;;43.77;27.00;;;5.30;99.90;;;;;;5020243;28;20037;-75
2022/01/27 02:03:44;;;;;;;46.77;29.03;;;4.90;99.90;;;;;;5020336;28;20475;-75
2022/01/27 02:06:18;;;;;;;49.27;28.13;;;5.00;99.90;;;;;;5016084;28;20108;-75
2022/01/27 02:09:05;;;;;;;;;;;4.80;99.90;;;;;;5012869;28;20060;-74
2022/01/27 02:19:43;;;;;;;45.97;25.27;;;4.80;99.90;;;;;;5028826;28;19963;-75
2022/01/27 02:22:09;;;;;;;43.87;26.73;;;4.70;99.90;;;;;;5034415;28;20033;-75
2022/01/27 02:24:36;;;;;;;46.00;28.63;;;5.40;99.90;;;;;;5006187;28;20022;-76
2022/01/27 02:27:03;;;;;;;46.37;27.93;;;4.80;99.90;;;;;;5034516;28;20079;-75
2022/01/27 02:29:29;;;;;;;45.13;27.70;;;;;;;;;;5021827;28;20030;-75
2022/01/27 02:31:57;;;;;;;42.10;28.17;;;4.90;99.90;;;;;;4996551;28;20148;-76
2022/01/27 02:34:23;;;;;;;47.13;27.80;;;4.80;99.90;;;;;;5024122;28;20438;-74
2022/01/27 02:36:49;;;;;;;42.80;25.67;;;4.80;99.90;;;;;;5006880;28;20055;-74
2022/01/27 02:39:16;;;;;;;42.50;28.17;;;4.90;99.90;;;;;;4996515;28;20030;-75
2022/01/27 02:41:48;;;;;;;42.97;26.67;;;5.00;99.90;;;;;;4995978;28;20475;-75
2022/01/27 02:44:54;;;;;;;40.80;27.70;;;4.90;99.90;;;;;;5014556;28;20109;-74
2022/01/27 02:47:21;;;;;;;44.53;29.33;;;4.80;99.90;;;;;;4932367;29;20051;-74
2022/01/27 02:49:47;;;;;;;42.03;28.07;;;4.90;99.90;;;;;;4922624;29;20127;-74
2022/01/27 02:52:14;;;;;;;48.07;28.37;;;4.90;99.90;;;;;;4915564;29;20043;-75
2022/01/27 02:54:40;;;;;;;43.73;26.80;;;;;;;;;;4921118;29;20056;-76
2022/01/27 02:57:06;;;;;;;41.57;26.73;;;;;;;;;;4915497;29;20131;-75
2022/01/27 02:59:32;;;;;;;46.47;28.17;;;;;;;;;;4900077;29;20039;-75
2022/01/27 03:01:59;;;;;;;41.13;25.83;;;;;;;;;;4927775;29;20039;-75
2022/01/27 03:04:26;;;;;;;46.23;28.63;;;4.90;99.90;;;;;;4907712;29;20103;-74
2022/01/27 03:06:52;;;;;;;42.13;27.50;;;4.90;99.90;;;;;;4907718;29;20036;-74
2022/01/27 03:09:19;;;;;;;45.80;27.33;;;4.90;99.90;;;;;;4922767;29;20048;-74
2022/01/27 03:11:45;;;;;;;41.50;27.17;;;;;;;;;;4914866;29;20047;-75
2022/01/27 03:14:12;;;;;;;47.80;27.07;;;5.00;99.90;;;;;;4925076;29;20040;-74
2022/01/27 03:16:38;;;;;;;40.93;26.13;;;5.00;99.90;;;;;;4932841;29;20087;-74
2022/01/27 03:19:04;;;;;;;44.90;27.03;;;4.90;99.90;;;;;;4931002;29;20498;-75
2022/01/27 03:21:30;;;;;;;41.77;27.77;;;4.90;99.90;;;;;;4914731;29;20039;-75
2022/01/27 03:23:56;;;;;;;42.77;26.10;;;;;;;;;;4968313;28;20045;-75
2022/01/27 03:26:22;;;;;;;47.07;26.97;;;;;;;;;;5040575;28;20036;-74
2022/01/27 03:28:48;;;;;;;40.97;26.57;;;;;;;;;;5029863;28;20076;-74
2022/01/27 03:31:14;;;;;;;48.87;27.90;;;5.20;99.90;;;;;;5014582;28;20482;-74
2022/01/27 03:33:40;;;;;;;44.97;26.93;;;4.90;99.90;;;;;;5016294;28;20474;-74
2022/01/27 03:36:07;;;;;;;45.47;27.30;;;;;;;;;;5013161;28;20040;-74
2022/01/27 03:38:33;;;;;;;39.23;26.37;;;;;;;;;;4994052;28;20049;-74
2022/01/27 03:40:59;;;;;;;41.07;26.43;;;5.00;99.90;;;;;;4993634;28;20390;-74
2022/01/27 03:43:24;;;;;;;43.30;25.67;;;5.00;99.90;;;;;;5024765;28;20045;-75
2022/01/27 03:45:50;;;;;;;33.17;23.90;;;5.20;99.90;;;;;;5012081;28;20030;-75
2022/01/27 03:48:15;;;;;;;37.17;25.63;;;5.00;99.90;;;;;;5015911;28;20036;-75
2022/01/27 03:50:41;;;;;;;45.00;28.83;;;5.10;99.90;;;;;;5031846;28;20383;-75
2022/01/27 03:53:07;;;;;;;36.83;25.53;;;5.00;99.90;;;;;;5030673;28;20037;-75
2022/01/27 03:55:33;;;;;;;42.60;27.63;;;;;;;;;;5013747;28;20072;-75
2022/01/27 03:57:59;;;;;;;41.50;24.97;;;;;;;;;;5012238;28;20113;-74
2022/01/27 04:00:24;;;;;;;40.70;28.07;;;5.10;99.90;;;;;;5013510;28;20061;-74
2022/01/27 04:03:02;;;;;;;46.47;26.20;;;5.10;99.90;;;;;;5031539;28;20030;-74
2022/01/27 04:05:34;;;;;;;38.47;25.50;;;5.00;99.90;;;;;;5028112;28;20029;-76
2022/01/27 04:08:00;;;;;;;44.40;28.53;;;;;;;;;;5014294;28;20030;-75
2022/01/27 04:10:26;;;;;;;41.60;26.07;;;;;;;;;;5012549;28;20026;-75
2022/01/27 04:12:51;;;;;;;35.27;24.20;;;5.10;99.90;;;;;;5028579;28;20486;-75
2022/01/27 04:15:18;;;;;;;41.40;24.97;;;;;;;;;;5015724;28;20148;-76
2022/01/27 04:17:43;;;;;;;38.67;25.83;;;4.80;99.90;;;;;;5012065;28;20044;-75
2022/01/27 04:20:09;;;;;;;38.50;25.63;;;5.20;99.90;;;;;;5015574;28;20399;-75
2022/01/27 04:22:35;;;;;;;34.60;24.93;;;5.10;99.90;;;;;;5012190;28;20483;-75
2022/01/27 04:25:00;;;;;;;38.87;25.47;;;5.30;99.90;;;;;;5012452;28;20032;-75
2022/01/27 04:27:31;;;;;;;39.47;24.63;;;5.10;99.90;;;;;;5012031;28;20029;-75
2022/01/27 04:29:56;;;;;;;42.00;26.73;;;5.40;99.90;;;;;;5012554;28;20109;-75
2022/01/27 04:32:28;;;;;;;42.53;24.80;;;;;;;;;;5012100;28;20121;-75
2022/01/27 04:35:00;;;;;;;39.63;23.90;;;4.70;99.90;;;;;;5011929;28;20026;-75
2022/01/27 04:37:27;;;;;;;40.07;26.50;;;;;;;;;;5031039;28;20025;-75
2022/01/27 04:40:08;;;;;;;42.00;25.43;;;;;;;;;;5001303;28;20029;-75
2022/01/27 04:45:18;;;;;;;35.90;23.00;;;;;;;;;;5019801;28;20037;-75
2022/01/27 04:47:48;;;;;;;38.90;25.67;;;;;;;;;;5026575;28;20045;-75
2022/01/27 04:50:14;;;;;;;38.90;24.93;;;5.10;99.90;;;;;;5011696;28;20046;-75
2022/01/27 04:52:44;;;;;;;39.43;24.00;;;;;;;;;;5015089;28;20036;-75
2022/01/27 04:55:12;;;;;;;39.63;25.10;;;5.30;99.90;;;;;;5025937;28;20042;-75
2022/01/27 04:57:41;;;;;;;37.47;22.67;;;5.40;99.90;;;;;;5030255;28;20512;-75
2022/01/27 05:00:09;;;;;;;38.87;25.53;;;5.10;99.90;;;;;;5031422;28;20109;-75
2022/01/27 05:02:48;;;;;;;40.23;23.97;;;5.40;99.90;;;;;;4994761;28;20048;-75
2022/01/27 05:05:14;;;;;;;38.50;22.73;;;;;;;;;;5012875;28;20029;-75
2022/01/27 05:07:40;;;;;;;36.23;22.17;;;5.20;99.90;;;;;;5011217;28;20490;-75
2022/01/27 05:10:13;;;;;;;41.83;21.93;;;5.30;99.90;;;;;;5011626;28;20037;-75
2022/01/27 05:12:46;;;;;;;38.80;22.67;;;5.30;99.90;;;;;;5010679;28;20034;-75
2022/01/27 05:15:12;;;;;;;39.67;23.93;;;5.80;99.90;;;;;;5024297;28;20092;-75
2022/01/27 05:17:37;;;;;;;38.20;23.20;;;5.10;99.90;;;;;;5010949;28;20450;-75
2022/01/27 05:20:03;;;;;;;34.60;22.83;;;5.20;99.90;;;;;;5011380;28;20022;-75
2022/01/27 05:22:31;;;;;;;36.80;23.77;;;;;;;;;;5029220;28;20037;-74
2022/01/27 05:24:57;;;;;;;38.60;20.90;;;5.30;99.90;;;;;;5017373;28;20104;-75
2022/01/27 05:27:23;;;;;;;40.20;23.20;;;5.30;99.90;;;;;;5030936;28;20552;-75
2022/01/27 05:29:48;;;;;;;36.23;22.30;;;5.20;99.90;;;;;;5028813;28;20395;-75
2022/01/27 05:32:14;;;;;;;36.43;22.17;;;5.40;99.90;;;;;;5031113;28;20462;-75
2022/01/27 05:34:39;;;;;;;40.10;21.47;;;5.50;99.90;;;;;;5015088;28;20068;-75
2022/01/27 05:37:05;;;;;;;41.83;23.80;;;;;;;;;;5027526;28;20056;-75
2022/01/27 05:39:31;;;;;;;35.67;22.50;;;5.40;99.90;;;;;;5010882;28;20080;-75
2022/01/27 05:41:56;;;;;;;38.97;21.97;;;5.00;99.90;;;;;;5014512;28;20116;-75
2022/01/27 05:44:22;;;;;;;36.03;21.80;;;;;;;;;;5024411;28;20430;-75
2022/01/27 05:46:48;;;;;;;36.37;22.03;;;5.40;99.90;;;;;;4993470;28;20402;-74
2022/01/27 05:49:13;;;;;;;35.37;22.23;;;;;;;;;;5020269;28;20052;-74
2022/01/27 05:51:39;;;;;;;41.90;24.03;;;5.10;99.90;;;;;;5027708;28;20040;-75
2022/01/27 05:54:04;;;;;;;32.83;22.07;;;5.30;99.90;;;;;;5029497;28;20394;-75
2022/01/27 05:56:30;;;;;;;37.50;20.93;;;5.50;99.90;;;;;;5023055;28;20125;-75
2022/01/27 05:58:55;;;;;;;39.13;22.53;;;5.40;99.90;;;;;;5030291;28;20037;-74
2022/01/27 06:01:22;;;;;;;39.40;22.57;;;;;;;;;;5030006;28;20056;-75
2022/01/27 06:03:48;;;;;;;37.90;21.77;;;5.70;99.90;;;;;;5029470;28;20029;-74
2022/01/27 06:06:13;;;;;;;42.97;21.03;;;5.30;99.90;;;;;;5023284;28;20117;-74
2022/01/27 06:08:39;;;;;;;37.27;22.87;;;5.40;99.90;;;;;;5014485;28;20121;-75
2022/01/27 06:11:05;;;;;;;33.73;19.90;;;5.30;99.90;;;;;;5010157;28;20034;-74
2022/01/27 06:13:31;;;;;;;34.23;21.40;;;5.40;99.90;;;;;;5018751;28;20054;-74
2022/01/27 06:15:57;;;;;;;35.97;20.93;;;;;;;;;;5020411;28;20549;-74
2022/01/27 06:18:23;;;;;;;37.97;21.70;;;5.40;99.90;;;;;;5025098;28;20076;-74
2022/01/27 06:20:49;;;;;;;38.50;19.70;;;;;;;;;;5019727;28;20038;-74
2022/01/27 06:23:15;;;;;;;35.20;19.57;;;5.50;99.90;;;;;;5010506;28;20757;-74
2022/01/27 06:25:41;;;;;;;35.30;20.13;;;5.40;99.90;;;;;;5017250;28;20398;-74
2022/01/27 06:28:06;;;;;;;38.93;21.57;;;5.60;99.90;;;;;;5027889;28;20036;-74
2022/01/27 06:30:35;;;;;;;32.83;19.07;;;;;;;;;;5011267;28;20030;-74
2022/01/27 06:33:05;;;;;;;34.60;19.20;;;5.60;99.90;;;;;;5010277;28;20463;-74
2022/01/27 06:35:31;;;;;;;30.17;18.37;;;5.90;99.90;;;;;;5016035;28;20033;-74
2022/01/27 06:37:57;;;;;;;40.67;21.17;;;;;;;;;;5010797;28;20046;-74
2022/01/27 06:40:23;;;;;;;36.33;18.53;;;5.70;99.90;;;;;;5012286;28;20022;-74
2022/01/27 06:42:49;;;;;;;30.63;18.47;;;;;;;;;;5012613;28;20116;-74
2022/01/27 06:45:15;;;;;;;32.10;17.67;;;5.90;99.90;;;;;;5003540;28;20034;-74
2022/01/27 06:47:41;;;;;;;35.10;19.00;;;;;;;;;;5029299;28;20026;-77
2022/01/27 06:50:07;;;;;;;31.50;17.33;;;6.00;99.90;;;;;;5029759;28;20053;-74
2022/01/27 06:52:33;;;;;;;41.10;21.70;;;6.10;99.90;;;;;;5029745;28;20030;-74
2022/01/27 06:55:01;;;;;;;34.30;21.27;;;5.80;99.90;;;;;;5013016;28;20034;-74
2022/01/27 06:57:26;;;;;;;34.47;18.87;;;6.00;99.90;;;;;;5016618;28;20030;-74
2022/01/27 06:59:52;;;;;;;34.10;19.13;;;;;;;;;;5009777;28;20487;-74
2022/01/27 07:02:18;;;;;;;29.20;18.30;;;6.10;99.90;;;;;;5026802;28;20033;-75
2022/01/27 07:04:44;;;;;;;32.90;19.03;;;6.30;99.90;;;;;;5031822;28;20030;-75
2022/01/27 07:07:12;;;;;;;32.37;17.57;;;;;;;;;;5031501;28;20467;-74
2022/01/27 07:09:37;;;;;;;29.27;17.87;;;6.20;99.90;;;;;;5032625;28;20099;-74
2022/01/27 07:12:03;;;;;;;35.43;18.93;;;6.20;99.90;;;;;;5025619;28;20491;-74
2022/01/27 07:14:32;;;;;;;32.67;18.80;;;6.30;99.90;;;;;;5013491;28;20080;-75
2022/01/27 07:16:58;;;;;;;37.10;19.20;;;6.40;99.90;;;;;;5013185;28;20034;-75
2022/01/27 07:19:24;;;;;;;41.27;21.67;;;6.30;99.90;;;;;;5025619;28;20383;-74
2022/01/27 07:21:49;;;;;;;30.03;18.57;;;6.30;99.90;;;;;;5026885;28;20034;-74
2022/01/27 07:24:15;;;;;;;37.73;19.80;;;6.60;99.90;;;;;;5005716;28;20040;-75
2022/01/27 07:26:41;;;;;;;35.00;19.53;;;;;;;;;;5013113;28;20048;-75
2022/01/27 07:29:06;;;;;;;36.83;19.23;;;6.20;99.90;;;;;;5023305;28;20021;-75
2022/01/27 07:31:32;;;;;;;37.03;19.43;;;6.10;99.90;;;;;;5023612;28;20028;-75
2022/01/27 07:33:58;;;;;;;31.87;18.60;;;5.70;99.90;;;;;;5025550;28;20474;-75
2022/01/27 07:36:24;;;;;;;45.63;22.57;;;6.10;99.90;;;;;;5020448;28;20482;-75
2022/01/27 07:38:50;;;;;;;39.47;20.00;;;6.20;99.90;;;;;;5031785;28;20036;-75
2022/01/27 07:41:17;;;;;;;43.17;19.67;;;6.10;99.90;;;;;;5014020;28;20033;-75
2022/01/27 07:43:43;;;;;;;38.03;20.60;;;;;;;;;;5019117;28;20060;-75
2022/01/27 07:46:11;;;;;;;41.93;21.17;;;6.10;99.90;;;;;;5032429;28;20057;-75
2022/01/27 07:48:37;;;;;;;45.20;24.63;;;6.00;99.90;;;;;;5027972;28;20026;-74
2022/01/27 07:51:03;;;;;;;41.87;22.43;;;6.00;99.90;;;;;;5017415;28;20398;-74
2022/01/27 07:53:29;;;;;;;37.07;21.00;;;5.90;99.90;;;;;;5025891;28;20231;-73
2022/01/27 07:55:56;;;;;;;42.77;21.00;;;;;;;;;;5030974;28;20037;-73
2022/01/27 07:58:21;;;;;;;40.47;21.07;;;6.00;99.90;;;;;;5026345;28;20025;-73
2022/01/27 08:00:47;;;;;;;38.40;20.40;;;6.00;99.90;;;;;;5019882;28;20064;-72
2022/01/27 08:03:13;;;;;;;41.87;21.63;;;;;;;;;;5019739;28;20036;-72
2022/01/27 08:05:39;;;;;;;40.53;20.50;;;5.70;99.90;;;;;;5018745;28;20030;-73
2022/01/27 08:08:04;;;;;;;33.60;19.80;;;6.30;99.90;;;;;;5011135;28;20073;-73
2022/01/27 08:10:37;;;;;;;34.87;19.40;;;6.10;99.90;;;;;;5020063;28;20042;-73
2022/01/27 08:13:03;;;;;;;36.43;20.63;;;6.10;99.90;;;;;;5017720;28;20029;-73
2022/01/27 08:15:29;;;;;;;42.63;20.73;;;6.10;99.90;;;;;;5022730;28;20088;-72
2022/01/27 08:17:55;;;;;;;37.90;20.40;;;;;;;;;;5017105;28;20359;-72
2022/01/27 08:20:21;;;;;;;48.00;23.30;;;;;;;;;;5018257;28;20789;-73
2022/01/27 08:22:50;;;;;;;34.03;19.60;;;;;;;;;;5017670;28;20038;-73
2022/01/27 08:25:16;;;;;;;35.60;20.47;;;6.10;99.90;;;;;;5029960;28;20758;-73
2022/01/27 08:27:46;;;;;;;30.27;19.50;;;;;;;;;;5029657;28;20041;-74
2022/01/27 08:30:15;;;;;;;34.97;21.20;;;;;;;;;;5029951;28;20718;-74
2022/01/27 08:35:14;;;;;;;35.83;20.63;;;6.30;99.90;;;;;;5028889;28;20037;-74
2022/01/27 08:37:40;;;;;;;40.00;22.70;;;;;;;;;;5022693;28;20045;-74
2022/01/27 08:40:06;;;;;;;36.30;21.60;;;6.30;99.90;;;;;;5028496;28;20438;-73
2022/01/27 08:42:32;;;;;;;38.73;21.67;;;;;;;;;;5020155;28;20113;-74
2022/01/27 08:44:58;;;;;;;41.07;22.63;;;6.50;99.90;;;;;;5010413;28;20157;-74
2022/01/27 08:47:23;;;;;;;37.23;21.47;;;6.30;99.90;;;;;;5011070;28;20033;-73
2022/01/27 08:49:49;;;;;;;44.57;22.50;;;;;;;;;;5012540;28;20155;-74
2022/01/27 08:52:15;;;;;;;40.17;21.97;;;6.20;99.90;;;;;;5020757;28;20548;-74
2022/01/27 08:54:41;;;;;;;34.50;20.33;;;6.20;99.90;;;;;;5019210;28;20030;-74
2022/01/27 08:57:06;;;;;;;47.00;25.30;;;6.40;99.90;;;;;;5028372;28;20061;-74
2022/01/27 08:59:32;;;;;;;39.63;23.50;;;6.30;99.90;;;;;;5030912;28;20018;-72
2022/01/27 09:01:57;;;;;;;39.10;23.37;;;6.70;99.90;;;;;;5030920;28;20026;-72
2022/01/27 09:04:23;;;;;;;42.87;21.90;;;6.40;99.90;;;;;;5012878;28;20052;-73
2022/01/27 09:06:48;;;;;;;35.90;21.17;;;6.30;99.90;;;;;;5030484;28;20037;-73
2022/01/27 09:09:14;;;;;;;41.37;24.53;;;6.30;99.90;;;;;;5030980;28;20108;-73
2022/01/27 09:11:43;;;;;;;35.33;20.77;;;;;;;;;;5030265;28;20463;-73
2022/01/27 09:14:09;;;;;;;39.73;21.97;;;6.30;99.90;;;;;;5030783;28;20033;-73
2022/01/27 09:16:35;;;;;;;35.30;21.83;;;6.50;99.90;;;;;;5030297;28;20400;-73
2022/01/27 09:19:01;;;;;;;41.43;22.37;;;6.50;99.90;;;;;;5030462;28;20079;-73
2022/01/27 09:21:39;;;;;;;35.70;20.73;;;6.60;99.90;;;;;;5030671;28;20022;-73
2022/01/27 09:24:05;;;;;;;34.60;22.33;;;6.60;99.90;;;;;;5030742;28;20026;-73
2022/01/27 09:29:28;;;;;;;38.23;20.37;;;7.00;99.90;;;;;;4996981;28;20071;-72
2022/01/27 09:31:55;;;;;;;31.97;18.67;;;6.50;99.90;;;;;;5030507;28;20467;-73
2022/01/27 09:34:21;;;;;;;34.57;19.97;;;6.70;99.90;;;;;;5030219;28;20119;-72
2022/01/27 09:36:47;;;;;;;29.50;19.30;;;6.50;99.90;;;;;;5029844;28;20501;-73
2022/01/27 09:39:14;;;;;;;29.37;19.33;;;6.60;99.90;;;;;;5030321;28;20038;-73
2022/01/27 09:41:41;;;;;;;34.97;18.57;;;6.50;99.90;;;;;;5029991;28;20037;-73
2022/01/27 09:44:10;;;;;;;28.37;18.73;;;6.70;99.90;;;;;;5030506;28;20021;-73
2022/01/27 09:46:39;;;;;;;34.30;20.63;;;;;;;;;;5029524;28;20041;-72
2022/01/27 09:49:18;;;;;;;28.30;18.50;;;;;;;;;;5030112;28;20026;-73
2022/01/27 09:51:46;;;;;;;36.03;19.53;;;6.60;99.90;;;;;;5018759;28;20132;-73
2022/01/27 09:54:16;;;;;;;29.90;20.03;;;6.60;99.90;;;;;;5030647;28;20156;-73
2022/01/27 09:56:42;;;;;;;30.90;19.50;;;6.70;99.90;;;;;;5011840;28;20514;-73
2022/01/27 09:59:09;;;;;;;34.53;19.47;;;6.60;99.90;;;;;;5030377;28;20148;-73
2022/01/27 10:01:36;;;;;;;26.07;18.40;;;6.50;99.90;;;;;;5029201;28;20558;-73
2022/01/27 10:04:05;;;;;;;30.77;19.07;;;6.70;99.90;;;;;;5029219;28;20018;-73
2022/01/27 10:06:33;;;;;;;35.70;19.67;;;6.60;99.90;;;;;;5029406;28;20017;-73
2022/01/27 10:09:11;;;;;;;31.97;19.27;;;6.70;99.90;;;;;;5029640;28;20025;-72
2022/01/27 10:11:37;;;;;;;28.80;19.00;;;;;;;;;;5028565;28;20047;-72
2022/01/27 10:14:20;;;;;;;27.40;19.40;;;6.80;99.90;;;;;;5029911;28;20060;-72
2022/01/27 10:16:46;;;;;;;32.87;18.60;;;7.10;99.90;;;;;;5009967;28;20160;-72
2022/01/27 10:19:13;;;;;;;27.57;18.50;;;6.80;99.90;;;;;;5018062;28;20087;-72
2022/01/27 10:21:39;;;;;;;27.97;18.73;;;6.80;99.90;;;;;;5029008;28;20045;-72
2022/01/27 10:24:22;;;;;;;33.30;20.57;;;6.80;99.90;;;;;;5029931;28;20410;-72
2022/01/27 10:27:15;;;;;;;28.20;17.97;;;6.90;99.90;;;;;;5029568;28;20037;-73
2022/01/27 10:29:50;;;;;;;27.93;16.73;;;6.90;99.90;;;;;;5029410;28;20387;-74
2022/01/27 10:32:16;;;;;;;23.80;16.37;;;6.90;99.90;;;;;;5009803;28;20160;-72
2022/01/27 10:34:58;;;;;;;25.40;15.40;;;6.90;99.90;;;;;;5009605;28;20463;-73
2022/01/27 10:37:24;;;;;;;29.67;15.97;;;7.10;99.90;;;;;;5010220;28;20049;-73
2022/01/27 10:39:50;;;;;;;22.90;15.37;;;7.00;99.90;;;;;;5025147;28;20025;-73
2022/01/27 10:42:20;;;;;;;21.57;15.10;;;7.00;99.90;;;;;;5033795;28;20037;-73
2022/01/27 10:44:48;;;;;;;22.13;15.23;;;7.10;99.90;;;;;;5032928;28;20068;-73
2022/01/27 10:47:19;;;;;;;25.93;16.37;;;7.00;99.90;;;;;;5033135;28;20026;-73
2022/01/27 10:52:45;;;;;;;28.73;16.97;;;7.10;99.90;;;;;;5033336;28;20064;-73
2022/01/27 10:55:17;;;;;;;23.87;16.23;;;7.20;99.90;;;;;;5034028;28;20022;-73
2022/01/27 10:57:49;;;;;;;24.53;15.17;;;7.10;99.90;;;;;;5015234;28;20720;-72
2022/01/27 11:00:18;;;;;;;25.40;15.17;;;6.60;99.90;;;;;;5033061;28;20105;-73
2022/01/27 11:02:52;;;;;;;23.87;16.60;;;7.30;99.90;;;;;;5032992;28;20490;-72
2022/01/27 11:05:23;;;;;;;28.73;17.00;;;7.20;99.90;;;;;;5015501;28;20061;-73
2022/01/27 11:07:49;;;;;;;28.13;17.17;;;7.10;99.90;;;;;;5032661;28;20021;-73
2022/01/27 11:10:16;;;;;;;33.83;17.33;;;7.60;99.90;;;;;;5033232;28;20021;-73
2022/01/27 11:12:43;;;;;;;26.73;17.47;;;7.20;99.90;;;;;;5032629;28;20029;-73
2022/01/27 11:15:14;;;;;;;33.60;16.93;;;7.30;99.90;;;;;;5032867;28;20029;-72
2022/01/27 11:17:41;;;;;;;34.27;19.80;;;;;;;;;;5032746;28;20037;-73
2022/01/27 11:20:29;;;;;;;33.47;19.73;;;7.40;99.90;;;;;;5033157;28;20032;-73
2022/01/27 11:23:24;;;;;;;34.27;21.50;;;7.50;99.90;;;;;;5032205;28;20060;-73
2022/01/27 11:25:54;;;;;;;35.07;21.40;;;7.40;99.90;;;;;;5013787;28;20068;-73
2022/01/27 11:28:21;;;;;;;41.07;20.60;;;7.50;99.90;;;;;;5038861;28;20033;-73
2022/01/27 11:30:47;;;;;;;41.17;21.17;;;;;;;;;;5037944;28;20116;-73
2022/01/27 11:33:14;;;;;;;31.07;19.03;;;7.60;99.90;;;;;;5032663;28;20120;-74
2022/01/27 11:35:40;;;;;;;33.60;21.10;;;7.60;99.90;;;;;;5032340;28;20042;-73
2022/01/27 11:38:08;;;;;;;34.00;21.03;;;7.60;99.90;;;;;;5032469;28;20067;-73
2022/01/27 11:40:34;;;;;;;38.57;22.07;;;;;;;;;;5026122;28;20029;-73
2022/01/27 11:42:59;;;;;;;37.23;20.60;;;7.70;99.90;;;;;;5017764;28;20037;-74
2022/01/27 11:45:37;;;;;;;36.07;21.17;;;7.70;99.90;;;;;;5012367;28;20486;-73
2022/01/27 11:48:13;;;;;;;34.33;22.53;;;7.80;99.90;;;;;;5012926;28;20720;-74
2022/01/27 11:50:57;;;;;;;38.10;24.10;;;7.60;99.90;;;;;;5011155;28;20057;-74
2022/01/27 11:53:36;;;;;;;32.88;20.17;;;7.80;99.90;;;;;;5012822;28;20025;-74
2022/01/27 11:56:27;;;;;;;39.47;23.03;;;7.80;99.90;;;;;;5012622;28;20026;-74
2022/01/27 11:58:53;;;;;;;38.73;20.60;;;7.80;99.90;;;;;;5011979;28;20026;-73
2022/01/27 12:01:21;;;;;;;40.57;23.37;;;;;;;;;;5023883;28;20030;-73
2022/01/27 12:04:08;;;;;;;35.93;22.47;;;8.00;99.90;;;;;;5032203;28;20048;-73
2022/01/27 12:06:48;;;;;;;32.43;20.20;;;7.90;99.90;;;;;;5031470;28;20096;-73
2022/01/27 12:09:20;;;;;;;34.90;20.53;;;7.90;99.90;;;;;;5031862;28;20471;-74
2022/01/27 12:11:52;;;;;;;28.50;19.80;;;8.00;99.90;;;;;;5024106;28;20042;-73
2022/01/27 12:14:23;;;;;;;33.17;20.47;;;7.90;99.90;;;;;;5031699;28;20083;-73
2022/01/27 12:17:07;;;;;;;35.50;22.60;;;7.90;99.90;;;;;;5031118;28;20120;-73
2022/01/27 12:19:55;;;;;;;33.80;20.17;;;7.90;99.90;;;;;;5031853;28;20029;-74
2022/01/27 12:22:25;;;;;;;41.43;22.40;;;8.00;99.90;;;;;;5030186;28;20037;-73
2022/01/27 12:24:57;;;;;;;34.00;21.73;;;8.00;99.90;;;;;;5031453;28;20029;-73
2022/01/27 12:27:24;;;;;;;31.97;19.83;;;8.00;99.90;;;;;;5031315;28;20025;-73
2022/01/27 12:29:54;;;;;;;34.43;20.03;;;8.10;99.90;;;;;;5012650;28;20021;-73
2022/01/27 12:32:22;;;;;;;40.53;22.20;;;8.00;99.90;;;;;;5019273;28;20057;-74
2022/01/27 12:34:56;;;;;;;36.50;23.27;;;8.20;99.90;;;;;;5011347;28;20034;-73
2022/01/27 12:37:34;;;;;;;40.80;23.97;;;8.00;99.90;;;;;;5010612;28;20033;-75
2022/01/27 12:40:04;;;;;;;40.17;23.13;;;7.90;99.90;;;;;;5031360;28;20053;-73
2022/01/27 12:42:35;;;;;;;37.80;23.37;;;8.20;99.90;;;;;;5030747;28;20118;-73
2022/01/27 12:45:07;;;;;;;39.00;21.57;;;8.00;99.90;;;;;;5029985;28;20056;-74
2022/01/27 12:47:36;;;;;;;47.17;25.33;;;8.00;99.90;;;;;;5011308;28;20436;-74
2022/01/27 12:50:11;;;;;;;36.07;22.10;;;8.00;99.90;;;;;;5030313;28;20394;-74
2022/01/27 12:52:41;;;;;;;33.87;22.57;;;8.00;99.90;;;;;;5012808;28;20025;-74
2022/01/27 12:55:10;;;;;;;38.20;22.20;;;8.00;99.90;;;;;;5029010;28;20025;-73
2022/01/27 12:57:36;;;;;;;35.97;21.83;;;;;;;;;;5030158;28;20108;-73
2022/01/27 13:00:06;;;;;;;34.23;23.10;;;8.10;99.90;;;;;;5030814;28;20049;-74
2022/01/27 13:02:32;;;;;;;33.20;21.77;;;;;;;;;;5029379;28;20061;-74
2022/01/27 13:04:59;;;;;;;37.13;23.57;;;8.30;99.90;;;;;;5011956;28;20030;-73
2022/01/27 13:07:26;;;;;;;37.37;22.27;;;8.20;99.90;;;;;;5011454;28;20682;-74
2022/01/27 13:10:20;;;;;;;41.23;23.07;;;8.20;99.90;;;;;;5030419;28;20036;-73
2022/01/27 13:12:52;;;;;;;31.60;21.37;;;8.40;99.90;;;;;;5025395;28;20033;-74
2022/01/27 13:15:25;;;;;;;38.73;21.63;;;8.20;99.90;;;;;;5010974;28;20022;-73
2022/01/27 13:17:59;;;;;;;37.00;22.63;;;8.30;99.90;;;;;;5010537;28;20387;-74
2022/01/27 13:25:49;;;;;;;34.23;19.70;;;8.50;99.90;;;;;;5029568;28;20064;-74
2022/01/27 13:28:22;;;;;;;29.77;19.83;;;8.50;99.90;;;;;;5030714;28;20029;-74
2022/01/27 13:30:50;;;;;;;30.33;17.55;;;8.60;99.90;;;;;;5030406;28;20022;-74
2022/01/27 13:33:21;;;;;;;24.90;17.30;;;8.60;99.90;;;;;;5026110;28;20042;-74
2022/01/27 13:35:48;;;;;;;26.73;17.13;;;8.70;99.90;;;;;;5015636;28;20076;-74
2022/01/27 13:38:21;;;;;;;25.13;15.40;;;8.70;99.90;;;;;;5030298;28;20018;-74
2022/01/27 13:41:19;;;;;;;25.23;15.10;;;8.80;99.90;;;;;;5029640;28;20036;-74
2022/01/27 13:44:02;;;;;;;24.20;12.50;;;9.10;99.90;;;;;;5028235;28;20108;-74
2022/01/27 13:46:51;;;;;;;18.25;12.85;;;9.10;99.90;;;;;;5030108;28;20045;-74
2022/01/27 13:49:33;;;;;;;24.83;12.90;;;9.00;99.90;;;;;;5030337;28;20075;-74
2022/01/27 13:52:00;;;;;;;20.53;10.73;;;9.10;99.90;;;;;;5029992;28;20395;-75
2022/01/27 13:54:31;;;;;;;20.90;12.23;;;9.10;99.90;;;;;;5029083;28;20556;-74
2022/01/27 13:57:09;;;;;;;16.97;8.30;;;9.30;99.90;;;;;;5029900;28;20398;-72
2022/01/27 13:59:51;;;;;;;11.63;7.23;;;9.20;99.90;;;;;;5030017;28;20057;-74